Climatologie pour Saint-Brevin les Pins
Jour • Résumé pour février 6, 2017 Système :  Métrique    Anglais   Mixte
« - 1 jour
+ 1 jour »
Jour Semaine Mois Année Personnalisé
  Maximum : Minimum : Moyenne :
Température sous abri : 10.5 °C 3.1 °C 6.6 °C
Point de rosée : 10.2 °C 1.8 °C 5.6 °C
Humidité : 98 % 87 % 93 %
Vitesse du vent : 29.0 km/h 0.0 km/h 8 km/h
Rafale : 37.0 km/h - -
Direction :- - SW
Pression : 1021.2 hPa 1014.1 hPa -
Précipitations : 7.1 mm    
Historical Graphs
 
 
Tableau de données pour février 6, 2017
Heure Tempé Pt rosée Pression Vent Vitesse Rafale Humidité Taux pluie (/hr) Soleil
00:00 6.3 °C 4.4 °C 1018.5 hPa NW 14.5 km/h 22.5 km/h 88 % 0.0 mm 0 W/m2
00:10 6.3 °C 4.4 °C 1018.5 hPa WNW 14.5 km/h 20.9 km/h 88 % 0.0 mm 0 W/m2
00:15 6.3 °C 4.4 °C 1018.8 hPa WNW 6.4 km/h 20.9 km/h 88 % 0.0 mm 0 W/m2
00:20 6.3 °C 4.3 °C 1018.8 hPa NNW 11.3 km/h 22.5 km/h 87 % 0.0 mm 0 W/m2
00:25 6.2 °C 4.2 °C 1018.8 hPa NW 8.0 km/h 22.5 km/h 87 % 0.0 mm 0 W/m2
00:30 6.2 °C 4.2 °C 1018.8 hPa NW 8.0 km/h 19.3 km/h 87 % 0.0 mm 0 W/m2
00:35 6.2 °C 4.2 °C 1019.2 hPa WNW 9.7 km/h 22.5 km/h 87 % 0.0 mm 0 W/m2
00:40 6.2 °C 4.2 °C 1019.2 hPa NNW 14.5 km/h 22.5 km/h 87 % 0.0 mm 0 W/m2
00:45 6.2 °C 4.2 °C 1019.2 hPa NW 17.7 km/h 17.7 km/h 87 % 0.0 mm 0 W/m2
00:50 6.3 °C 4.3 °C 1019.2 hPa NW 9.7 km/h 22.5 km/h 87 % 0.0 mm 0 W/m2
00:55 6.3 °C 4.3 °C 1019.5 hPa NNW 9.7 km/h 27.4 km/h 87 % 0.0 mm 0 W/m2
01:00 6.3 °C 4.3 °C 1019.5 hPa NNW 8.0 km/h 27.4 km/h 87 % 0.0 mm 0 W/m2
01:05 6.4 °C 4.4 °C 1019.5 hPa NW 9.7 km/h 24.1 km/h 87 % 0.0 mm 0 W/m2
01:10 6.4 °C 4.4 °C 1019.5 hPa WNW 8.0 km/h 24.1 km/h 87 % 0.0 mm 0 W/m2
01:15 6.4 °C 4.4 °C 1019.9 hPa NW 6.4 km/h 17.7 km/h 87 % 0.0 mm 0 W/m2
01:20 6.4 °C 4.4 °C 1019.5 hPa NNW 9.7 km/h 19.3 km/h 87 % 0.0 mm 0 W/m2
01:25 6.4 °C 4.4 °C 1019.5 hPa NNW 9.7 km/h 19.3 km/h 87 % 0.0 mm 0 W/m2
01:30 6.4 °C 4.4 °C 1019.9 hPa NW 8.0 km/h 17.7 km/h 87 % 0.0 mm 0 W/m2
01:35 6.3 °C 4.3 °C 1019.9 hPa NW 6.4 km/h 14.5 km/h 87 % 0.0 mm 0 W/m2
01:40 6.3 °C 4.3 °C 1019.9 hPa WNW 4.8 km/h 17.7 km/h 87 % 0.0 mm 0 W/m2
01:45 6.3 °C 4.3 °C 1019.9 hPa NNW 11.3 km/h 17.7 km/h 87 % 0.0 mm 0 W/m2
01:50 6.3 °C 4.3 °C 1019.9 hPa NW 9.7 km/h 22.5 km/h 87 % 0.0 mm 0 W/m2
01:55 6.3 °C 4.3 °C 1019.9 hPa NW 14.5 km/h 22.5 km/h 87 % 0.0 mm 0 W/m2
02:00 6.3 °C 4.3 °C 1019.9 hPa NW 6.4 km/h 17.7 km/h 87 % 0.0 mm 0 W/m2
02:05 6.3 °C 4.3 °C 1019.9 hPa NW 6.4 km/h 16.1 km/h 87 % 0.0 mm 0 W/m2
02:10 6.3 °C 4.3 °C 1019.9 hPa NW 3.2 km/h 16.1 km/h 87 % 0.0 mm 0 W/m2
02:15 6.3 °C 4.3 °C 1020.2 hPa NW 4.8 km/h 14.5 km/h 87 % 0.0 mm 0 W/m2
02:20 6.2 °C 4.2 °C 1020.2 hPa WNW 8.0 km/h 11.3 km/h 87 % 0.0 mm 0 W/m2
02:25 6.2 °C 4.2 °C 1020.2 hPa WNW 4.8 km/h 11.3 km/h 87 % 0.0 mm 0 W/m2
02:30 6.1 °C 4.1 °C 1020.2 hPa WNW 6.4 km/h 11.3 km/h 87 % 0.0 mm 0 W/m2
02:35 6.1 °C 4.2 °C 1020.2 hPa NW 4.8 km/h 11.3 km/h 88 % 0.0 mm 0 W/m2
02:40 6.0 °C 4.2 °C 1020.2 hPa NW 9.7 km/h 14.5 km/h 88 % 0.0 mm 0 W/m2
02:45 5.9 °C 4.1 °C 1020.2 hPa WNW 4.8 km/h 14.5 km/h 88 % 0.0 mm 0 W/m2
02:50 5.9 °C 4.1 °C 1020.2 hPa West 9.7 km/h 16.1 km/h 88 % 0.0 mm 0 W/m2
02:55 5.8 °C 4.0 °C 1020.5 hPa NW 8.0 km/h 16.1 km/h 88 % 0.0 mm 0 W/m2
03:00 5.8 °C 4.1 °C 1020.5 hPa NW 9.7 km/h 14.5 km/h 89 % 0.0 mm 0 W/m2
03:05 5.7 °C 4.0 °C 1020.5 hPa NNW 8.0 km/h 12.9 km/h 89 % 0.0 mm 0 W/m2
03:10 5.7 °C 4.0 °C 1020.5 hPa NNW 9.7 km/h 12.9 km/h 89 % 0.0 mm 0 W/m2
03:15 5.6 °C 3.9 °C 1020.5 hPa Calm   12.9 km/h 89 % 0.0 mm 0 W/m2
03:20 5.6 °C 3.9 °C 1020.5 hPa Calm   12.9 km/h 89 % 0.0 mm 0 W/m2
03:25 5.5 °C 3.8 °C 1020.5 hPa Calm   8.0 km/h 89 % 0.0 mm 0 W/m2
03:30 5.3 °C 3.7 °C 1020.5 hPa WNW 4.8 km/h 11.3 km/h 89 % 0.0 mm 0 W/m2
03:35 5.3 °C 3.6 °C 1020.5 hPa NW 4.8 km/h 11.3 km/h 89 % 0.0 mm 0 W/m2
03:40 5.2 °C 3.6 °C 1020.5 hPa NW 1.6 km/h 8.0 km/h 89 % 0.0 mm 0 W/m2
03:45 5.2 °C 3.5 °C 1020.5 hPa WNW 4.8 km/h 9.7 km/h 89 % 0.0 mm 0 W/m2
03:50 5.1 °C 3.6 °C 1020.5 hPa West 3.2 km/h 9.7 km/h 90 % 0.0 mm 0 W/m2
03:55 5.1 °C 3.6 °C 1020.9 hPa WNW 3.2 km/h 9.7 km/h 90 % 0.0 mm 0 W/m2
04:00 5.1 °C 3.6 °C 1020.9 hPa West 6.4 km/h 9.7 km/h 90 % 0.0 mm 0 W/m2
04:05 5.1 °C 3.6 °C 1020.5 hPa West 3.2 km/h 8.0 km/h 90 % 0.0 mm 0 W/m2
04:10 5.0 °C 3.5 °C 1020.9 hPa Calm   6.4 km/h 90 % 0.0 mm 0 W/m2
04:15 4.9 °C 3.4 °C 1020.9 hPa West 3.2 km/h 6.4 km/h 90 % 0.0 mm 0 W/m2
04:20 4.9 °C 3.6 °C 1020.5 hPa NW 4.8 km/h 8.0 km/h 91 % 0.0 mm 0 W/m2
04:25 4.9 °C 3.5 °C 1020.5 hPa NW 1.6 km/h 8.0 km/h 91 % 0.0 mm 0 W/m2
04:30 4.9 °C 3.5 °C 1020.5 hPa NW 1.6 km/h 8.0 km/h 91 % 0.0 mm 0 W/m2
04:35 4.8 °C 3.5 °C 1020.5 hPa Calm   8.0 km/h 91 % 0.0 mm 0 W/m2
04:40 4.8 °C 3.4 °C 1020.5 hPa Calm   4.8 km/h 91 % 0.0 mm 0 W/m2
04:45 4.8 °C 3.4 °C 1020.5 hPa Calm   1.6 km/h 91 % 0.0 mm 0 W/m2
04:50 4.7 °C 3.4 °C 1020.9 hPa Calm   3.2 km/h 91 % 0.0 mm 0 W/m2
04:55 4.7 °C 3.3 °C 1020.9 hPa WNW 1.6 km/h 3.2 km/h 91 % 0.0 mm 0 W/m2
05:00 4.7 °C 3.3 °C 1020.9 hPa Calm   3.2 km/h 91 % 0.0 mm 0 W/m2
05:05 4.6 °C 3.3 °C 1020.9 hPa WNW 3.2 km/h 4.8 km/h 91 % 0.0 mm 0 W/m2
05:10 4.6 °C 3.2 °C 1020.5 hPa Calm   4.8 km/h 91 % 0.0 mm 0 W/m2
05:15 4.4 °C 3.1 °C 1020.9 hPa Calm   4.8 km/h 91 % 0.0 mm 0 W/m2
05:25 4.2 °C 2.7 °C 1020.9 hPa Calm   3.2 km/h 90 % 0.0 mm 0 W/m2
05:30 4.1 °C 2.7 °C 1020.5 hPa Calm   3.2 km/h 91 % 0.0 mm 0 W/m2
05:35 4.0 °C 2.5 °C 1020.5 hPa Calm   3.2 km/h 90 % 0.0 mm 0 W/m2
05:40 3.9 °C 2.4 °C 1020.5 hPa WNW 3.2 km/h 4.8 km/h 90 % 0.0 mm 0 W/m2
05:45 3.8 °C 2.5 °C 1020.9 hPa Calm   4.8 km/h 91 % 0.0 mm 0 W/m2
05:50 3.8 °C 2.5 °C 1020.5 hPa Calm   4.8 km/h 91 % 0.0 mm 0 W/m2
05:55 3.8 °C 2.4 °C 1020.9 hPa Calm   1.6 km/h 91 % 0.0 mm 0 W/m2
06:00 3.7 °C 2.3 °C 1020.9 hPa WNW 3.2 km/h 3.2 km/h 91 % 0.0 mm 0 W/m2
06:05 3.6 °C 2.3 °C 1020.9 hPa WNW 3.2 km/h 3.2 km/h 91 % 0.0 mm 0 W/m2
06:10 3.5 °C 2.2 °C 1020.9 hPa WNW 3.2 km/h 4.8 km/h 91 % 0.0 mm 0 W/m2
06:15 3.4 °C 2.1 °C 1020.9 hPa Calm   4.8 km/h 91 % 0.0 mm 0 W/m2
06:20 3.3 °C 2.0 °C 1020.9 hPa WNW 3.2 km/h 4.8 km/h 91 % 0.0 mm 0 W/m2
06:25 3.3 °C 1.9 °C 1020.9 hPa Calm   4.8 km/h 91 % 0.0 mm 0 W/m2
06:30 3.2 °C 1.9 °C 1020.9 hPa Calm   4.8 km/h 91 % 0.0 mm 0 W/m2
06:35 3.2 °C 1.8 °C 1020.9 hPa Calm   3.2 km/h 91 % 0.0 mm 0 W/m2
06:40 3.1 °C 1.8 °C 1020.9 hPa Calm   3.2 km/h 91 % 0.0 mm 0 W/m2
06:45 3.1 °C 1.8 °C 1020.9 hPa Calm   1.6 km/h 91 % 0.0 mm 0 W/m2
06:50 3.2 °C 2.0 °C 1020.9 hPa Calm   3.2 km/h 92 % 0.0 mm 0 W/m2
06:55 3.2 °C 2.0 °C 1021.2 hPa Calm   3.2 km/h 92 % 0.0 mm 0 W/m2
07:00 3.3 °C 2.3 °C 1021.2 hPa Calm   1.6 km/h 93 % 0.0 mm 0 W/m2
07:05 3.4 °C 2.4 °C 1020.9 hPa Calm     93 % 0.0 mm 0 W/m2
07:10 3.4 °C 2.4 °C 1020.9 hPa Calm     93 % 0.0 mm 0 W/m2
07:15 3.4 °C 2.4 °C 1020.9 hPa Calm     93 % 0.0 mm 0 W/m2
07:20 3.4 °C 2.4 °C 1020.9 hPa Calm   1.6 km/h 93 % 0.0 mm 0 W/m2
07:25 3.5 °C 2.5 °C 1020.9 hPa WNW 1.6 km/h 3.2 km/h 93 % 0.0 mm 0 W/m2
07:30 3.5 °C 2.6 °C 1020.9 hPa Calm   3.2 km/h 94 % 0.0 mm 0 W/m2
07:40 3.7 °C 2.8 °C 1020.9 hPa Calm     94 % 0.0 mm 0 W/m2
07:45 3.7 °C 2.8 °C 1020.9 hPa Calm     94 % 0.0 mm 0 W/m2
07:50 3.8 °C 2.9 °C 1020.9 hPa Calm     94 % 0.0 mm 0 W/m2
07:55 3.8 °C 2.9 °C 1020.9 hPa Calm     94 % 0.0 mm 0 W/m2
08:00 3.8 °C 3.0 °C 1020.9 hPa Calm   1.6 km/h 94 % 0.0 mm 0 W/m2
08:05 3.8 °C 3.0 °C 1020.9 hPa Calm   1.6 km/h 94 % 0.0 mm 0 W/m2
08:10 3.8 °C 3.0 °C 1020.9 hPa Calm     94 % 0.0 mm 0 W/m2
08:15 3.8 °C 3.0 °C 1020.9 hPa Calm     94 % 0.0 mm 0 W/m2
08:20 3.8 °C 3.1 °C 1020.9 hPa WNW 3.2 km/h 3.2 km/h 95 % 0.0 mm 0 W/m2
08:25 3.8 °C 3.0 °C 1020.9 hPa WNW 3.2 km/h 3.2 km/h 94 % 0.0 mm 0 W/m2
08:30 3.8 °C 3.0 °C 1020.9 hPa Calm   3.2 km/h 94 % 0.0 mm 0 W/m2
08:35 3.8 °C 3.1 °C 1020.9 hPa Calm   3.2 km/h 95 % 0.0 mm 5 W/m2
08:40 3.8 °C 3.1 °C 1020.9 hPa Calm     95 % 0.0 mm 9 W/m2
08:45 3.9 °C 3.2 °C 1020.9 hPa Calm   1.6 km/h 95 % 0.0 mm 14 W/m2
08:50 3.9 °C 3.2 °C 1020.9 hPa Calm   1.6 km/h 95 % 0.0 mm 18 W/m2
08:55 3.9 °C 3.2 °C 1020.9 hPa Calm   1.6 km/h 95 % 0.0 mm 25 W/m2
09:00 4.0 °C 3.3 °C 1020.9 hPa Calm   1.6 km/h 95 % 0.0 mm 26 W/m2
09:05 4.1 °C 3.3 °C 1020.9 hPa Calm   1.6 km/h 95 % 0.0 mm 30 W/m2
09:10 4.2 °C 3.4 °C 1020.9 hPa Calm   1.6 km/h 95 % 0.0 mm 30 W/m2
09:15 4.3 °C 3.5 °C 1020.9 hPa Calm   1.6 km/h 95 % 0.0 mm 28 W/m2
09:20 4.4 °C 3.7 °C 1020.9 hPa Calm   1.6 km/h 95 % 0.0 mm 26 W/m2
09:25 4.6 °C 4.0 °C 1020.9 hPa Calm   1.6 km/h 96 % 0.0 mm 25 W/m2
09:30 4.6 °C 4.0 °C 1020.9 hPa Calm   1.6 km/h 96 % 0.0 mm 26 W/m2
09:35 4.7 °C 4.1 °C 1020.9 hPa Calm     96 % 0.0 mm 32 W/m2
09:40 4.8 °C 4.2 °C 1020.9 hPa Calm   1.6 km/h 96 % 0.0 mm 37 W/m2
09:45 4.9 °C 4.3 °C 1020.9 hPa Calm   1.6 km/h 96 % 0.0 mm 40 W/m2
09:50 5.0 °C 4.4 °C 1020.9 hPa Calm   1.6 km/h 96 % 0.0 mm 42 W/m2
09:55 5.1 °C 4.5 °C 1020.9 hPa WNW 1.6 km/h 1.6 km/h 96 % 0.0 mm 44 W/m2
10:00 5.2 °C 4.6 °C 1020.9 hPa Calm   1.6 km/h 96 % 0.0 mm 46 W/m2
10:05 5.3 °C 4.7 °C 1020.9 hPa Calm   1.6 km/h 96 % 0.0 mm 49 W/m2
10:10 5.4 °C 4.9 °C 1020.9 hPa Calm   4.8 km/h 96 % 0.0 mm 58 W/m2
10:15 5.6 °C 5.0 °C 1020.5 hPa WSW 1.6 km/h 4.8 km/h 96 % 0.0 mm 58 W/m2
10:20 5.7 °C 5.1 °C 1020.5 hPa WSW 1.6 km/h 3.2 km/h 96 % 0.0 mm 74 W/m2
10:25 5.8 °C 5.2 °C 1020.5 hPa SSW 1.6 km/h 4.8 km/h 96 % 0.0 mm 63 W/m2
10:30 5.9 °C 5.4 °C 1020.5 hPa Calm   4.8 km/h 96 % 0.0 mm 74 W/m2
10:35 6.3 °C 5.9 °C 1020.5 hPa SSW 3.2 km/h 4.8 km/h 97 % 0.0 mm 98 W/m2
10:40 6.8 °C 6.2 °C 1020.5 hPa South 3.2 km/h 4.8 km/h 96 % 0.0 mm 95 W/m2
10:45 7.0 °C 6.3 °C 1020.5 hPa SE 4.8 km/h 6.4 km/h 95 % 0.0 mm 90 W/m2
10:50 7.2 °C 6.4 °C 1020.5 hPa SE 1.6 km/h 6.4 km/h 95 % 0.0 mm 84 W/m2
10:55 7.3 °C 6.4 °C 1020.9 hPa SE 3.2 km/h 6.4 km/h 94 % 0.0 mm 111 W/m2
11:00 7.5 °C 6.6 °C 1020.9 hPa SE 4.8 km/h 6.4 km/h 94 % 0.0 mm 141 W/m2
11:05 7.7 °C 6.6 °C 1020.9 hPa SSE 3.2 km/h 9.7 km/h 93 % 0.0 mm 155 W/m2
11:10 7.8 °C 6.6 °C 1020.9 hPa South 8.0 km/h 9.7 km/h 92 % 0.0 mm 120 W/m2
11:15 7.9 °C 6.5 °C 1020.9 hPa South 4.8 km/h 9.7 km/h 91 % 0.0 mm 111 W/m2
11:20 7.9 °C 6.6 °C 1020.9 hPa SSE 8.0 km/h 9.7 km/h 91 % 0.0 mm 91 W/m2
11:25 8.0 °C 6.5 °C 1020.9 hPa SSE 8.0 km/h 12.9 km/h 90 % 0.0 mm 95 W/m2
11:30 8.1 °C 6.5 °C 1020.9 hPa SSE 4.8 km/h 12.9 km/h 90 % 0.0 mm 91 W/m2
11:35 8.1 °C 6.7 °C 1020.9 hPa South 4.8 km/h 9.7 km/h 91 % 0.0 mm 104 W/m2
11:40 8.2 °C 6.8 °C 1020.9 hPa SSE 6.4 km/h 9.7 km/h 91 % 0.0 mm 121 W/m2
11:45 8.2 °C 6.7 °C 1020.9 hPa South 4.8 km/h 11.3 km/h 90 % 0.0 mm 100 W/m2
11:50 8.2 °C 6.7 °C 1020.9 hPa South 6.4 km/h 11.3 km/h 90 % 0.0 mm 70 W/m2
11:55 8.2 °C 6.6 °C 1020.9 hPa SSE 8.0 km/h 11.3 km/h 90 % 0.0 mm 77 W/m2
12:00 8.1 °C 6.4 °C 1021.2 hPa South 6.4 km/h 12.9 km/h 89 % 0.0 mm 93 W/m2
12:05 8.0 °C 6.3 °C 1021.2 hPa South 3.2 km/h 14.5 km/h 89 % 0.3 mm 91 W/m2
12:10 7.9 °C 6.4 °C 1021.2 hPa South 6.4 km/h 14.5 km/h 90 % 0.3 mm 88 W/m2
12:15 7.9 °C 6.3 °C 1021.2 hPa SSE 4.8 km/h 9.7 km/h 90 % 0.3 mm 79 W/m2
12:20 7.9 °C 6.3 °C 1021.2 hPa SSE 4.8 km/h 9.7 km/h 90 % 0.3 mm 76 W/m2
12:25 7.8 °C 6.5 °C 1020.9 hPa SSE 4.8 km/h 9.7 km/h 91 % 0.5 mm 65 W/m2
12:30 7.7 °C 6.3 °C 1020.9 hPa South 3.2 km/h 9.7 km/h 91 % 0.5 mm 51 W/m2
12:35 7.7 °C 6.3 °C 1020.9 hPa SSE 4.8 km/h 11.3 km/h 91 % 0.5 mm 56 W/m2
12:40 7.6 °C 6.2 °C 1020.9 hPa SSW 4.8 km/h 11.3 km/h 91 % 0.5 mm 67 W/m2
12:45 7.6 °C 6.3 °C 1020.9 hPa South 1.6 km/h 11.3 km/h 92 % 0.8 mm 70 W/m2
12:50 7.6 °C 6.3 °C 1020.9 hPa SSE 6.4 km/h 11.3 km/h 92 % 0.8 mm 74 W/m2
12:55 7.5 °C 6.3 °C 1020.9 hPa South 8.0 km/h 11.3 km/h 92 % 0.8 mm 90 W/m2
13:00 7.5 °C 6.4 °C 1020.5 hPa South 12.9 km/h 12.9 km/h 93 % 0.8 mm 102 W/m2
13:05 7.4 °C 6.4 °C 1020.5 hPa South 11.3 km/h 14.5 km/h 93 % 0.8 mm 104 W/m2
13:10 7.5 °C 6.4 °C 1020.5 hPa SSW 11.3 km/h 14.5 km/h 93 % 0.8 mm 111 W/m2
13:15 7.6 °C 6.5 °C 1020.2 hPa South 4.8 km/h 11.3 km/h 93 % 1.0 mm 88 W/m2
13:20 7.6 °C 6.5 °C 1020.2 hPa SSW 6.4 km/h 11.3 km/h 93 % 0.8 mm 77 W/m2
13:25 7.5 °C 6.4 °C 1020.2 hPa South 8.0 km/h 12.9 km/h 93 % 0.8 mm 86 W/m2
13:30 7.5 °C 6.4 °C 1020.2 hPa South 6.4 km/h 16.1 km/h 93 % 0.8 mm 72 W/m2
13:35 7.4 °C 6.4 °C 1020.2 hPa South 6.4 km/h 17.7 km/h 93 % 0.8 mm 67 W/m2
13:40 7.4 °C 6.4 °C 1020.2 hPa SSW 4.8 km/h 17.7 km/h 93 % 0.8 mm 100 W/m2
13:45 7.6 °C 6.5 °C 1020.2 hPa South 12.9 km/h 17.7 km/h 93 % 0.8 mm 158 W/m2
13:50 7.6 °C 6.7 °C 1019.9 hPa SSW 6.4 km/h 16.1 km/h 94 % 0.8 mm 114 W/m2
13:55 7.7 °C 6.8 °C 1019.9 hPa South 8.0 km/h 14.5 km/h 94 % 0.8 mm 90 W/m2
14:00 7.7 °C 6.8 °C 1019.9 hPa SSW 9.7 km/h 19.3 km/h 94 % 0.8 mm 69 W/m2
14:05 7.7 °C 6.8 °C 1019.5 hPa South 12.9 km/h 19.3 km/h 94 % 0.5 mm 76 W/m2
14:10 7.6 °C 6.7 °C 1019.5 hPa South 19.3 km/h 22.5 km/h 94 % 0.5 mm 79 W/m2
14:15 7.6 °C 6.7 °C 1019.5 hPa SSW 9.7 km/h 22.5 km/h 94 % 0.5 mm 88 W/m2
14:20 7.6 °C 6.7 °C 1019.5 hPa South 14.5 km/h 24.1 km/h 94 % 0.5 mm 76 W/m2
14:25 7.6 °C 6.8 °C 1019.5 hPa SSW 11.3 km/h 24.1 km/h 95 % 0.5 mm 51 W/m2
14:30 7.5 °C 6.6 °C 1019.5 hPa SSW 19.3 km/h 25.7 km/h 94 % 0.5 mm 84 W/m2
14:35 7.5 °C 6.8 °C 1019.2 hPa South 9.7 km/h 25.7 km/h 95 % 0.5 mm 79 W/m2
14:40 7.5 °C 6.8 °C 1019.2 hPa South 16.1 km/h 19.3 km/h 95 % 0.5 mm 97 W/m2
14:45 7.4 °C 6.7 °C 1019.2 hPa SW 9.7 km/h 24.1 km/h 95 % 0.3 mm 123 W/m2
14:50 7.4 °C 6.7 °C 1019.2 hPa SSW 12.9 km/h 24.1 km/h 95 % 0.3 mm 118 W/m2
14:55 7.4 °C 6.7 °C 1019.2 hPa South 14.5 km/h 22.5 km/h 95 % 0.3 mm 79 W/m2
15:00 7.3 °C 6.4 °C 1019.2 hPa SSW 12.9 km/h 27.4 km/h 94 % 0.3 mm 58 W/m2
15:05 7.1 °C 6.0 °C 1019.2 hPa SSW 12.9 km/h 29.0 km/h 93 % 0.3 mm 79 W/m2
15:10 7.0 °C 5.9 °C 1019.2 hPa South 14.5 km/h 29.0 km/h 93 % 0.3 mm 70 W/m2
15:15 7.0 °C 5.9 °C 1018.8 hPa South 12.9 km/h 22.5 km/h 93 % 0.0 mm 62 W/m2
15:20 7.0 °C 5.9 °C 1018.8 hPa SSE 8.0 km/h 22.5 km/h 93 % 0.0 mm 63 W/m2
15:25 6.8 °C 5.8 °C 1018.5 hPa South 9.7 km/h 27.4 km/h 93 % 0.0 mm 47 W/m2
15:30 6.8 °C 5.8 °C 1018.5 hPa South 11.3 km/h 27.4 km/h 93 % 0.0 mm 40 W/m2
15:35 6.8 °C 5.6 °C 1018.5 hPa South 14.5 km/h 24.1 km/h 92 % 0.0 mm 54 W/m2
15:40 6.9 °C 5.9 °C 1018.5 hPa SSW 11.3 km/h 22.5 km/h 93 % 0.0 mm 56 W/m2
15:45 7.0 °C 5.9 °C 1018.5 hPa South 12.9 km/h 22.5 km/h 93 % 0.0 mm 72 W/m2
15:50 7.1 °C 6.0 °C 1018.5 hPa South 14.5 km/h 22.5 km/h 93 % 0.0 mm 42 W/m2
15:55 7.1 °C 6.0 °C 1018.2 hPa South 17.7 km/h 22.5 km/h 93 % 0.0 mm 63 W/m2
16:00 7.1 °C 6.1 °C 1018.2 hPa South 19.3 km/h 22.5 km/h 93 % 0.0 mm 63 W/m2
16:05 7.1 °C 6.1 °C 1018.2 hPa SSW 29.0 km/h 32.2 km/h 93 % 0.0 mm 56 W/m2
16:10 7.1 °C 6.1 °C 1018.2 hPa South 11.3 km/h 32.2 km/h 93 % 0.0 mm 40 W/m2
16:15 7.1 °C 6.2 °C 1018.2 hPa South 17.7 km/h 29.0 km/h 94 % 0.0 mm 47 W/m2
16:20 7.0 °C 6.1 °C 1018.2 hPa South 16.1 km/h 27.4 km/h 94 % 0.0 mm 39 W/m2
16:25 7.0 °C 6.1 °C 1018.2 hPa South 16.1 km/h 25.7 km/h 94 % 0.0 mm 44 W/m2
16:30 6.9 °C 6.0 °C 1017.8 hPa South 9.7 km/h 27.4 km/h 94 % 0.0 mm 62 W/m2
16:35 7.0 °C 6.1 °C 1017.8 hPa South 12.9 km/h 27.4 km/h 94 % 0.0 mm 32 W/m2
16:40 6.9 °C 6.2 °C 1017.8 hPa SSE 11.3 km/h 25.7 km/h 95 % 0.0 mm 25 W/m2
16:45 6.9 °C 6.2 °C 1017.8 hPa SSW 9.7 km/h 25.7 km/h 95 % 0.0 mm 46 W/m2
16:50 6.9 °C 6.2 °C 1017.8 hPa SSE 8.0 km/h 27.4 km/h 95 % 0.0 mm 26 W/m2
16:55 6.9 °C 6.1 °C 1017.8 hPa South 9.7 km/h 27.4 km/h 95 % 0.0 mm 18 W/m2
17:00 6.9 °C 6.1 °C 1017.8 hPa SSW 22.5 km/h 25.7 km/h 95 % 0.0 mm 14 W/m2
17:05 6.9 °C 6.1 °C 1017.8 hPa South 14.5 km/h 25.7 km/h 95 % 0.0 mm 11 W/m2
17:10 6.9 °C 6.1 °C 1017.8 hPa SE 11.3 km/h 24.1 km/h 95 % 0.0 mm 9 W/m2
17:15 6.9 °C 6.2 °C 1017.8 hPa South 14.5 km/h 25.7 km/h 95 % 0.0 mm 11 W/m2
17:20 6.9 °C 6.2 °C 1017.5 hPa South 14.5 km/h 30.6 km/h 95 % 0.0 mm 12 W/m2
17:25 7.0 °C 6.3 °C 1017.5 hPa SSE 9.7 km/h 30.6 km/h 95 % 0.0 mm 9 W/m2
17:30 7.1 °C 6.3 °C 1017.5 hPa South 22.5 km/h 24.1 km/h 95 % 0.0 mm 11 W/m2
17:35 7.1 °C 6.5 °C 1017.5 hPa SSE 17.7 km/h 27.4 km/h 96 % 0.3 mm 9 W/m2
17:40 7.1 °C 6.5 °C 1017.5 hPa South 12.9 km/h 27.4 km/h 96 % 0.3 mm 11 W/m2
17:45 7.1 °C 6.5 °C 1017.5 hPa SSE 16.1 km/h 29.0 km/h 96 % 0.3 mm 7 W/m2
17:50 7.2 °C 6.6 °C 1017.5 hPa SSE 12.9 km/h 29.0 km/h 96 % 0.3 mm 5 W/m2
17:55 7.2 °C 6.6 °C 1017.2 hPa SSW 22.5 km/h 33.8 km/h 96 % 0.3 mm 5 W/m2
18:00 7.2 °C 6.6 °C 1017.2 hPa South 14.5 km/h 33.8 km/h 96 % 0.3 mm 5 W/m2
18:10 7.2 °C 6.6 °C 1017.2 hPa SSW 17.7 km/h 35.4 km/h 96 % 0.3 mm 0 W/m2
18:15 7.2 °C 6.6 °C 1017.2 hPa South 9.7 km/h 35.4 km/h 96 % 0.3 mm 0 W/m2
18:20 7.3 °C 6.7 °C 1016.8 hPa SW 17.7 km/h 29.0 km/h 96 % 0.3 mm 0 W/m2
18:25 7.3 °C 6.7 °C 1016.8 hPa South 16.1 km/h 32.2 km/h 96 % 0.3 mm 0 W/m2
18:30 7.3 °C 6.7 °C 1016.8 hPa SSE 27.4 km/h 35.4 km/h 96 % 0.3 mm 0 W/m2
18:35 7.2 °C 6.6 °C 1017.2 hPa SSW 19.3 km/h 35.4 km/h 96 % 0.0 mm 0 W/m2
18:40 7.2 °C 6.6 °C 1016.8 hPa SSW 14.5 km/h 32.2 km/h 96 % 0.0 mm 0 W/m2
18:45 7.2 °C 6.6 °C 1016.8 hPa South 19.3 km/h 30.6 km/h 96 % 0.0 mm 0 W/m2
18:50 7.3 °C 6.7 °C 1016.8 hPa South 12.9 km/h 32.2 km/h 96 % 0.0 mm 0 W/m2
18:55 7.2 °C 6.6 °C 1016.8 hPa SSW 20.9 km/h 35.4 km/h 96 % 0.0 mm 0 W/m2
19:00 7.3 °C 6.7 °C 1016.8 hPa South 14.5 km/h 35.4 km/h 96 % 0.0 mm 0 W/m2
19:05 7.3 °C 6.7 °C 1016.8 hPa SSE 22.5 km/h 37.0 km/h 96 % 0.0 mm 0 W/m2
19:10 7.3 °C 6.7 °C 1016.5 hPa South 27.4 km/h 37.0 km/h 96 % 0.3 mm 0 W/m2
19:15 7.3 °C 6.7 °C 1016.5 hPa South 19.3 km/h 27.4 km/h 96 % 0.3 mm 0 W/m2
19:20 7.4 °C 6.8 °C 1016.5 hPa South 19.3 km/h 27.4 km/h 96 % 0.3 mm 0 W/m2
19:30 7.4 °C 7.0 °C 1016.5 hPa South 9.7 km/h 30.6 km/h 97 % 0.5 mm 0 W/m2
19:35 7.5 °C 7.1 °C 1016.5 hPa SSW 14.5 km/h 29.0 km/h 97 % 0.5 mm 0 W/m2
19:40 7.6 °C 7.1 °C 1016.1 hPa SSE 12.9 km/h 29.0 km/h 97 % 0.5 mm 0 W/m2
19:45 7.7 °C 7.2 °C 1016.1 hPa South 11.3 km/h 30.6 km/h 97 % 0.5 mm 0 W/m2
19:50 7.7 °C 7.3 °C 1016.1 hPa South 12.9 km/h 33.8 km/h 97 % 0.5 mm 0 W/m2
19:55 7.8 °C 7.3 °C 1016.1 hPa South 16.1 km/h 35.4 km/h 97 % 0.5 mm 0 W/m2
20:00 7.8 °C 7.4 °C 1016.1 hPa SSE 20.9 km/h 35.4 km/h 97 % 0.5 mm 0 W/m2
20:05 7.8 °C 7.4 °C 1016.1 hPa SSE 12.9 km/h 27.4 km/h 97 % 0.5 mm 0 W/m2
20:10 7.9 °C 7.4 °C 1015.8 hPa South 12.9 km/h 27.4 km/h 97 % 0.3 mm 0 W/m2
20:15 7.9 °C 7.5 °C 1015.8 hPa South 14.5 km/h 27.4 km/h 97 % 0.3 mm 0 W/m2
20:20 8.0 °C 7.6 °C 1015.8 hPa SSE 19.3 km/h 29.0 km/h 97 % 0.3 mm 0 W/m2
20:25 8.1 °C 7.7 °C 1015.8 hPa South 11.3 km/h 29.0 km/h 97 % 0.5 mm 0 W/m2
20:30 8.2 °C 7.7 °C 1015.8 hPa SSE 19.3 km/h 27.4 km/h 97 % 0.3 mm 0 W/m2
20:35 8.2 °C 7.8 °C 1015.8 hPa South 12.9 km/h 27.4 km/h 97 % 0.3 mm 0 W/m2
20:40 8.3 °C 7.8 °C 1015.5 hPa South 6.4 km/h 25.7 km/h 97 % 0.3 mm 0 W/m2
20:45 8.3 °C 7.9 °C 1015.5 hPa South 16.1 km/h 22.5 km/h 97 % 0.3 mm 0 W/m2
20:50 8.4 °C 7.9 °C 1015.5 hPa SSE 9.7 km/h 22.5 km/h 97 % 0.5 mm 0 W/m2
20:55 8.5 °C 8.1 °C 1015.5 hPa South 11.3 km/h 19.3 km/h 97 % 0.5 mm 0 W/m2
21:00 8.6 °C 8.2 °C 1015.1 hPa SSE 12.9 km/h 20.9 km/h 97 % 0.5 mm 0 W/m2
21:05 8.7 °C 8.3 °C 1015.1 hPa South 6.4 km/h 20.9 km/h 97 % 0.5 mm 0 W/m2
21:10 8.8 °C 8.4 °C 1015.1 hPa South 14.5 km/h 16.1 km/h 97 % 0.8 mm 0 W/m2
21:15 8.9 °C 8.4 °C 1014.8 hPa SSE 16.1 km/h 17.7 km/h 97 % 0.8 mm 0 W/m2
21:20 9.0 °C 8.7 °C 1014.8 hPa SE 4.8 km/h 17.7 km/h 98 % 1.0 mm 0 W/m2
21:25 9.1 °C 8.7 °C 1014.8 hPa SSW 9.7 km/h 17.7 km/h 97 % 1.0 mm 0 W/m2
21:30 9.2 °C 8.9 °C 1014.8 hPa SSW 4.8 km/h 16.1 km/h 98 % 1.3 mm 0 W/m2
21:40 9.5 °C 9.2 °C 1014.4 hPa SSW 14.5 km/h 16.1 km/h 98 % 1.5 mm 0 W/m2
21:45 9.8 °C 9.5 °C 1014.4 hPa South 8.0 km/h 16.1 km/h 98 % 1.5 mm 0 W/m2
21:50 9.9 °C 9.6 °C 1014.4 hPa SSW 11.3 km/h 16.1 km/h 98 % 1.8 mm 0 W/m2
21:55 10.1 °C 9.8 °C 1014.4 hPa SW 14.5 km/h 17.7 km/h 98 % 2.0 mm 0 W/m2
22:00 10.2 °C 9.9 °C 1014.4 hPa South 6.4 km/h 19.3 km/h 98 % 2.0 mm 0 W/m2
22:05 10.3 °C 10.0 °C 1014.4 hPa SW 6.4 km/h 19.3 km/h 98 % 2.0 mm 0 W/m2
22:10 10.3 °C 10.0 °C 1014.4 hPa SSW 4.8 km/h 16.1 km/h 98 % 2.0 mm 0 W/m2
22:15 10.4 °C 10.1 °C 1014.4 hPa SSW 8.0 km/h 20.9 km/h 98 % 2.0 mm 0 W/m2
22:20 10.4 °C 10.1 °C 1014.4 hPa SW 11.3 km/h 20.9 km/h 98 % 2.0 mm 0 W/m2
22:25 10.4 °C 10.1 °C 1014.4 hPa WNW 8.0 km/h 16.1 km/h 98 % 2.0 mm 0 W/m2
22:30 10.4 °C 10.1 °C 1014.4 hPa WSW 6.4 km/h 17.7 km/h 98 % 1.8 mm 0 W/m2
22:40 10.3 °C 10.0 °C 1014.4 hPa SW 17.7 km/h 20.9 km/h 98 % 1.5 mm 0 W/m2
22:45 10.4 °C 10.1 °C 1014.4 hPa WSW 12.9 km/h 22.5 km/h 98 % 1.5 mm 0 W/m2
22:50 10.4 °C 10.1 °C 1014.4 hPa SW 14.5 km/h 22.5 km/h 98 % 1.3 mm 0 W/m2
22:55 10.4 °C 10.1 °C 1014.4 hPa West 14.5 km/h 27.4 km/h 98 % 1.3 mm 0 W/m2
23:00 10.4 °C 10.1 °C 1014.4 hPa West 11.3 km/h 27.4 km/h 98 % 1.3 mm 0 W/m2
23:05 10.4 °C 10.1 °C 1014.1 hPa West 6.4 km/h 24.1 km/h 98 % 1.0 mm 0 W/m2
23:10 10.3 °C 10.0 °C 1014.4 hPa WSW 11.3 km/h 20.9 km/h 98 % 1.0 mm 0 W/m2
23:15 10.3 °C 10.0 °C 1014.1 hPa SW 12.9 km/h 27.4 km/h 98 % 0.8 mm 0 W/m2
23:20 10.4 °C 10.1 °C 1014.1 hPa West 11.3 km/h 27.4 km/h 98 % 1.0 mm 0 W/m2
23:25 10.4 °C 10.1 °C 1014.1 hPa WSW 14.5 km/h 25.7 km/h 98 % 0.8 mm 0 W/m2
23:30 10.4 °C 10.1 °C 1014.1 hPa SW 14.5 km/h 24.1 km/h 98 % 0.8 mm 0 W/m2
23:35 10.4 °C 10.1 °C 1014.1 hPa WSW 8.0 km/h 24.1 km/h 98 % 1.3 mm 0 W/m2
23:40 10.4 °C 10.1 °C 1014.1 hPa WSW 12.9 km/h 25.7 km/h 98 % 1.3 mm 0 W/m2
23:45 10.4 °C 10.1 °C 1014.1 hPa WSW 20.9 km/h 25.7 km/h 98 % 1.5 mm 0 W/m2
23:50 10.5 °C 10.2 °C 1014.1 hPa WSW 8.0 km/h 22.5 km/h 98 % 1.5 mm 0 W/m2
23:55 10.5 °C 10.2 °C 1014.1 hPa WNW 3.2 km/h 20.9 km/h 98 % 1.3 mm 0 W/m2
Avec l'autorisation de Weather Underground - 1.75 mb